createdAt,value
2022-10-20T00:03:49.014Z,0
2022-10-20T00:08:53.322Z,0
2022-10-20T00:13:57.365Z,0
2022-10-20T00:19:01.536Z,0
2022-10-20T00:24:05.669Z,0
2022-10-20T00:29:09.878Z,0
2022-10-20T00:34:13.983Z,0
2022-10-20T00:39:18.131Z,0
2022-10-20T00:44:22.298Z,0
2022-10-20T00:49:26.476Z,0
2022-10-20T00:54:30.631Z,0
2022-10-20T00:59:34.808Z,0
2022-10-20T01:04:37.089Z,0
2022-10-20T01:09:41.233Z,0
2022-10-20T01:14:45.394Z,0
2022-10-20T01:19:49.565Z,0
2022-10-20T01:24:53.745Z,0
2022-10-20T01:29:57.893Z,0
2022-10-20T01:35:00.239Z,0
2022-10-20T01:40:04.311Z,0
2022-10-20T01:45:08.474Z,0
2022-10-20T01:50:12.665Z,0
2022-10-20T01:55:16.809Z,0
2022-10-20T02:00:20.997Z,0
2022-10-20T02:05:25.153Z,0
2022-10-20T02:10:29.287Z,0
2022-10-20T02:15:33.476Z,0
2022-10-20T02:20:37.599Z,0
2022-10-20T02:25:41.788Z,0
2022-10-20T02:30:45.950Z,0
2022-10-20T02:35:50.122Z,0
2022-10-20T02:40:54.272Z,0
2022-10-20T02:45:58.467Z,0
2022-10-20T02:51:02.639Z,0
2022-10-20T02:56:06.790Z,0
2022-10-20T03:01:11.177Z,0
2022-10-20T03:06:15.076Z,0
2022-10-20T03:11:19.239Z,0
2022-10-20T03:16:23.438Z,0
2022-10-20T03:21:27.583Z,0
2022-10-20T03:26:31.732Z,0
2022-10-20T03:31:35.920Z,0
2022-10-20T03:36:40.089Z,0
2022-10-20T03:41:44.266Z,0
2022-10-20T03:46:48.488Z,0
2022-10-20T03:51:52.576Z,0
2022-10-20T03:56:56.786Z,0
2022-10-20T04:02:00.935Z,0
2022-10-20T04:07:05.066Z,0
2022-10-20T04:12:09.241Z,0
2022-10-20T04:17:13.374Z,0
2022-10-20T04:22:17.528Z,0
2022-10-20T04:27:21.705Z,0
2022-10-20T04:32:25.852Z,0
2022-10-20T04:37:30.013Z,0
2022-10-20T04:42:34.229Z,0
2022-10-20T04:47:38.670Z,0
2022-10-20T04:52:42.508Z,0
2022-10-20T04:57:46.663Z,0
2022-10-20T05:02:50.842Z,0
2022-10-20T05:07:55.060Z,0
2022-10-20T05:12:59.175Z,0
2022-10-20T05:18:03.343Z,0
2022-10-20T05:23:07.492Z,0
2022-10-20T05:28:11.680Z,0
2022-10-20T05:33:15.855Z,0
2022-10-20T05:38:19.998Z,0
2022-10-20T05:43:24.137Z,2
2022-10-20T05:48:28.304Z,6
2022-10-20T05:58:36.644Z,39
2022-10-20T06:03:40.792Z,59
2022-10-20T06:08:45.054Z,89
2022-10-20T06:13:51.890Z,142
2022-10-20T06:18:53.314Z,231
2022-10-20T06:23:57.437Z,349
2022-10-20T06:29:04.605Z,465
2022-10-20T06:34:05.791Z,588
2022-10-20T06:39:09.968Z,733
2022-10-20T06:44:14.127Z,885
2022-10-20T06:49:18.244Z,1044
2022-10-20T06:54:22.429Z,1213
2022-10-20T06:59:26.611Z,1380
2022-10-20T07:04:28.877Z,1608
2022-10-20T07:09:33.011Z,1816
2022-10-20T07:14:37.210Z,1981
2022-10-20T07:19:41.366Z,2072
2022-10-20T07:24:45.497Z,2150
2022-10-20T07:29:49.703Z,2320
2022-10-20T07:34:53.860Z,2545
2022-10-20T07:39:57.982Z,2799
2022-10-20T07:45:02.155Z,2986
2022-10-20T07:50:06.328Z,3107
2022-10-20T07:55:17.919Z,3190
2022-10-20T08:00:14.674Z,3227
2022-10-20T08:05:18.815Z,3341
2022-10-20T08:15:27.164Z,4018
2022-10-20T08:20:31.322Z,3883
2022-10-20T08:25:35.446Z,3845
2022-10-20T08:30:39.663Z,4122
2022-10-20T08:35:43.761Z,4629
2022-10-20T08:40:47.945Z,5084
2022-10-20T08:45:52.065Z,5335
2022-10-20T08:50:56.239Z,5431
2022-10-20T08:56:00.393Z,5140
2022-10-20T09:01:04.571Z,4917
2022-10-20T09:06:08.737Z,4835
2022-10-20T09:11:12.907Z,4596
2022-10-20T09:16:27.198Z,4156
2022-10-20T09:21:21.262Z,3660
2022-10-20T09:26:30.947Z,3308
2022-10-20T09:31:29.571Z,3638
2022-10-20T09:36:33.690Z,4654
2022-10-20T09:41:37.875Z,5653
2022-10-20T09:46:41.997Z,6260
2022-10-20T09:51:46.267Z,5895
2022-10-20T09:56:50.328Z,4617
2022-10-20T10:01:54.477Z,4173
2022-10-20T10:06:58.672Z,5035
2022-10-20T10:12:02.829Z,5977
2022-10-20T10:17:07.044Z,5975
2022-10-20T10:22:11.159Z,5359
2022-10-20T10:27:15.299Z,3797
2022-10-20T10:32:19.443Z,2795
2022-10-20T10:37:23.596Z,2690
2022-10-20T10:42:27.797Z,3113
2022-10-20T10:47:33.388Z,4457
2022-10-20T10:52:36.124Z,5416
2022-10-20T10:57:40.241Z,5612
2022-10-20T11:02:44.410Z,5858
2022-10-20T11:07:48.563Z,6660
2022-10-20T11:12:52.752Z,7119
2022-10-20T11:17:56.893Z,5319
2022-10-20T11:23:01.098Z,5203
2022-10-20T11:28:05.203Z,3731
2022-10-20T11:33:09.395Z,2000
2022-10-20T11:38:13.550Z,2038
2022-10-20T11:43:17.703Z,3295
2022-10-20T11:48:21.842Z,4445
2022-10-20T11:53:26.013Z,4591
2022-10-20T11:58:30.154Z,5002
2022-10-20T12:03:34.368Z,4931
2022-10-20T12:08:38.539Z,3878
2022-10-20T12:13:42.668Z,3271
2022-10-20T12:18:46.805Z,2685
2022-10-20T12:23:50.975Z,2189
2022-10-20T12:28:55.106Z,1592
2022-10-20T12:33:59.384Z,1487
2022-10-20T12:39:01.581Z,1760
2022-10-20T12:44:05.737Z,1203
2022-10-20T12:49:11.954Z,1180
2022-10-20T12:54:14.071Z,1760
2022-10-20T12:59:18.220Z,1910
2022-10-20T13:04:22.407Z,1329
2022-10-20T13:09:26.501Z,1795
2022-10-20T13:14:30.706Z,2494
2022-10-20T13:19:34.859Z,3050
2022-10-20T13:24:42.770Z,2775
2022-10-20T13:29:43.162Z,5180
2022-10-20T13:34:47.329Z,5574
2022-10-20T13:39:51.460Z,4865
2022-10-20T13:44:55.631Z,4157
2022-10-20T13:49:59.807Z,4011
2022-10-20T13:55:03.988Z,5728
2022-10-20T14:00:08.108Z,5537
2022-10-20T14:05:12.276Z,5267
2022-10-20T14:10:16.462Z,5219
2022-10-20T14:15:20.632Z,5888
2022-10-20T14:20:24.770Z,5726
2022-10-20T14:25:29.012Z,4330
2022-10-20T14:30:35.359Z,5074
2022-10-20T14:35:37.260Z,6307
2022-10-20T14:40:41.402Z,6151
2022-10-20T14:45:45.552Z,5854
2022-10-20T14:50:49.730Z,3682
2022-10-20T14:55:53.880Z,3161
2022-10-20T15:00:58.060Z,2942
2022-10-20T15:06:02.233Z,2895
2022-10-20T15:11:06.360Z,3107
2022-10-20T15:16:10.531Z,3415
2022-10-20T15:21:14.648Z,3339
2022-10-20T15:26:18.860Z,1950
2022-10-20T15:31:23.085Z,1419
2022-10-20T15:36:27.149Z,1500
2022-10-20T15:41:31.337Z,1340
2022-10-20T15:46:35.493Z,1025
2022-10-20T15:51:39.654Z,896
2022-10-20T15:56:43.779Z,878
2022-10-20T16:01:47.959Z,888
2022-10-20T16:06:53.109Z,867
2022-10-20T16:11:56.260Z,765
2022-10-20T16:17:00.436Z,630
2022-10-20T16:22:04.601Z,501
2022-10-20T16:27:08.735Z,380
2022-10-20T16:32:12.948Z,185
2022-10-20T16:37:17.123Z,91
2022-10-20T16:42:21.215Z,53
2022-10-20T16:47:25.402Z,26
2022-10-20T16:52:29.530Z,10
2022-10-20T16:57:33.706Z,3
2022-10-20T17:02:37.860Z,0
2022-10-20T17:07:42.062Z,0
2022-10-20T17:12:46.208Z,0
2022-10-20T17:17:50.365Z,0
2022-10-20T17:22:54.530Z,0
2022-10-20T17:27:58.735Z,0
2022-10-20T17:33:02.854Z,0
2022-10-20T17:38:06.980Z,0
2022-10-20T17:43:11.187Z,0
2022-10-20T17:48:15.336Z,0
2022-10-20T17:53:19.475Z,0
2022-10-20T17:58:23.630Z,0
2022-10-20T18:03:25.888Z,0
2022-10-20T18:08:30.140Z,0
2022-10-20T18:13:34.217Z,0
2022-10-20T18:18:38.409Z,0
2022-10-20T18:23:42.529Z,0
2022-10-20T18:28:48.360Z,0
2022-10-20T18:33:48.993Z,0
2022-10-20T18:38:53.152Z,0
2022-10-20T18:43:58.133Z,0
2022-10-20T18:49:01.493Z,0
2022-10-20T18:54:05.617Z,0
2022-10-20T18:59:09.762Z,0
2022-10-20T19:04:14.038Z,0
2022-10-20T19:09:18.096Z,0
2022-10-20T19:14:22.357Z,0
2022-10-20T19:19:26.739Z,0
2022-10-20T19:24:30.545Z,0
2022-10-20T19:29:34.701Z,0
2022-10-20T19:34:38.876Z,0
2022-10-20T19:39:43.042Z,0
2022-10-20T19:44:47.217Z,0
2022-10-20T19:49:51.369Z,0
2022-10-20T19:54:55.546Z,0
2022-10-20T19:59:59.713Z,0
2022-10-20T20:05:03.880Z,0
2022-10-20T20:10:07.991Z,0
2022-10-20T20:15:12.154Z,0
2022-10-20T20:20:16.316Z,0
2022-10-20T20:25:20.505Z,0
2022-10-20T20:30:24.640Z,0
2022-10-20T20:35:28.804Z,0
2022-10-20T20:40:33.006Z,0
2022-10-20T20:45:39.982Z,0
2022-10-20T20:50:41.282Z,0
2022-10-20T20:55:45.465Z,0
2022-10-20T21:00:49.835Z,0
2022-10-20T21:05:53.746Z,0
2022-10-20T21:10:57.934Z,0
2022-10-20T21:16:02.075Z,0
2022-10-20T21:21:06.324Z,0
2022-10-20T21:26:10.419Z,0
2022-10-20T21:31:14.554Z,0
2022-10-20T21:36:18.726Z,0
2022-10-20T21:41:22.882Z,0
2022-10-20T21:46:27.032Z,0
2022-10-20T21:51:31.203Z,0
2022-10-20T21:56:35.344Z,0
2022-10-20T22:01:39.513Z,0
2022-10-20T22:06:43.699Z,0
2022-10-20T22:11:47.872Z,0
2022-10-20T22:16:51.991Z,0
2022-10-20T22:27:00.355Z,0
2022-10-20T22:32:04.600Z,0
2022-10-20T22:37:08.671Z,0
2022-10-20T22:42:12.813Z,0
2022-10-20T22:47:16.961Z,0
2022-10-20T22:52:21.152Z,0
2022-10-20T22:57:25.297Z,0
2022-10-20T23:02:29.446Z,0
2022-10-20T23:07:33.601Z,0
2022-10-20T23:12:37.984Z,0
2022-10-20T23:17:41.936Z,0
2022-10-20T23:22:46.091Z,0
2022-10-20T23:27:50.227Z,0
2022-10-20T23:32:54.452Z,0
2022-10-20T23:37:58.582Z,0
2022-10-20T23:43:02.709Z,0
2022-10-20T23:48:06.867Z,0
2022-10-20T23:53:11.067Z,0
2022-10-20T23:58:15.186Z,0
